Andes — 5BFM3 — position and weather

sailwx.info

Track history (hours):
 
Tides and Currents Weather Stations Pressure Air Temp Water Temp Dewpoint Dewpoint Depression Visibility Wind Speed Wind Dir Waves Ship Positions

Andes

Last reported at 2015-May-25 08:33 UTC. Time now 2015-May-27 07:52 UTC.
Position N 18°19' W 064°21'.

Length 182 m; draft 11.1 m.

Type: Ship. MMSI: 209394000.

Date/timePositionNaut miles runAvg speedWind from/ knotsBaromVisibWave heightAir tempDewpointWater temp
2015-May-25 08:33N 18°19' W 064°21'  
2015-May-18 22:25N 38°01' W 030°36'1213.6
2015-May-18 21:34N 38°07' W 030°24'1413.6
2015-May-18 20:34N 38°15' W 030°10'1414.1
2015-May-18 19:34N 38°22' W 029°55'1414.1
2015-May-18 18:34N 38°30' W 029°40'1413.9
2015-May-18 17:33N 38°38' W 029°25'1414.2
2015-May-18 16:34N 38°46' W 029°10'1414.3
2015-May-18 15:33N 38°54' W 028°55'1414.1
2015-May-18 14:33N 39°02' W 028°40'1313.5
2015-May-18 13:34N 39°09' W 028°25'1413.5
2015-May-18 12:34N 39°17' W 028°11'1413.7
2015-May-18 11:34N 39°24' W 027°56'1514.5
2015-May-18 10:34N 39°32' W 027°40'  
Track history (hours):
 
Tides and Currents Weather Stations Pressure Air Temp Water Temp Dewpoint Dewpoint Depression Visibility Wind Speed Wind Dir Waves Ship Positions

Andes

Last reported at 2015-May-25 08:33 UTC. Time now 2015-May-27 07:52 UTC.
Position N 18°19' W 064°21'.

Length 182 m; draft 11.1 m.

Type: Ship. MMSI: 209394000.

Date/timePositionNaut miles runAvg speedWind from/ knotsBaromVisibWave heightAir tempDewpointWater temp
2015-May-25 08:33N 18°19' W 064°21'  
2015-May-18 22:25N 38°01' W 030°36'1213.6
2015-May-18 21:34N 38°07' W 030°24'1413.6
2015-May-18 20:34N 38°15' W 030°10'1414.1
2015-May-18 19:34N 38°22' W 029°55'1414.1
2015-May-18 18:34N 38°30' W 029°40'1413.9
2015-May-18 17:33N 38°38' W 029°25'1414.2
2015-May-18 16:34N 38°46' W 029°10'1414.3
2015-May-18 15:33N 38°54' W 028°55'1414.1
2015-May-18 14:33N 39°02' W 028°40'1313.5
2015-May-18 13:34N 39°09' W 028°25'1413.5
2015-May-18 12:34N 39°17' W 028°11'1413.7
2015-May-18 11:34N 39°24' W 027°56'1514.5
2015-May-18 10:34N 39°32' W 027°40'  

Dump ship's entire track history